sensor_id;sensor_type;location;lat;lon;timestamp;P1;durP1;ratioP1;P2;durP2;ratioP2
12687;SDS011;6408;59.388;17.798;2023-07-31T00:27:44;3.08;;;2.83;;
12687;SDS011;6408;59.388;17.798;2023-07-31T00:30:40;3.17;;;2.88;;
12687;SDS011;6408;59.388;17.798;2023-07-31T01:24:43;3.85;;;3.00;;
12687;SDS011;6408;59.388;17.798;2023-07-31T01:30:58;3.17;;;2.88;;
12687;SDS011;6408;59.388;17.798;2023-07-31T01:37:30;4.20;;;3.80;;
12687;SDS011;6408;59.388;17.798;2023-07-31T01:40:33;4.75;;;3.72;;
12687;SDS011;6408;59.388;17.798;2023-07-31T01:44:02;4.22;;;3.83;;
12687;SDS011;6408;59.388;17.798;2023-07-31T01:46:58;4.22;;;3.83;;
12687;SDS011;6408;59.388;17.798;2023-07-31T02:10:47;4.03;;;3.20;;
12687;SDS011;6408;59.388;17.798;2023-07-31T02:13:32;3.75;;;3.17;;
12687;SDS011;6408;59.388;17.798;2023-07-31T02:16:07;3.85;;;3.47;;
12687;SDS011;6408;59.388;17.798;2023-07-31T02:18:46;3.53;;;3.20;;
12687;SDS011;6408;59.388;17.798;2023-07-31T02:21:36;3.97;;;3.67;;
12687;SDS011;6408;59.388;17.798;2023-07-31T02:30:43;5.05;;;3.40;;
12687;SDS011;6408;59.388;17.798;2023-07-31T02:33:29;4.40;;;4.00;;
12687;SDS011;6408;59.388;17.798;2023-07-31T02:36:15;3.83;;;3.53;;
12687;SDS011;6408;59.388;17.798;2023-07-31T02:39:30;5.47;;;3.35;;
12687;SDS011;6408;59.388;17.798;2023-07-31T02:41:59;6.38;;;3.97;;
12687;SDS011;6408;59.388;17.798;2023-07-31T03:01:22;4.15;;;3.85;;
12687;SDS011;6408;59.388;17.798;2023-07-31T03:56:47;4.40;;;4.00;;
12687;SDS011;6408;59.388;17.798;2023-07-31T04:02:58;6.90;;;4.70;;
12687;SDS011;6408;59.388;17.798;2023-07-31T04:09:35;5.85;;;4.88;;
12687;SDS011;6408;59.388;17.798;2023-07-31T04:23:14;6.25;;;5.20;;
12687;SDS011;6408;59.388;17.798;2023-07-31T04:32:55;6.28;;;5.68;;
12687;SDS011;6408;59.388;17.798;2023-07-31T04:49:35;6.25;;;5.55;;
12687;SDS011;6408;59.388;17.798;2023-07-31T04:59:40;7.70;;;5.85;;
12687;SDS011;6408;59.388;17.798;2023-07-31T05:16:09;7.00;;;5.97;;
12687;SDS011;6408;59.388;17.798;2023-07-31T05:19:05;5.68;;;5.18;;
12687;SDS011;6408;59.388;17.798;2023-07-31T05:22:05;5.80;;;4.95;;
12687;SDS011;6408;59.388;17.798;2023-07-31T05:24:55;5.18;;;4.68;;
12687;SDS011;6408;59.388;17.798;2023-07-31T05:27:31;7.72;;;4.93;;
12687;SDS011;6408;59.388;17.798;2023-07-31T05:30:08;5.47;;;4.50;;
12687;SDS011;6408;59.388;17.798;2023-07-31T05:32:42;4.80;;;4.28;;
12687;SDS011;6408;59.388;17.798;2023-07-31T05:38:38;4.20;;;3.80;;
12687;SDS011;6408;59.388;17.798;2023-07-31T05:41:19;4.38;;;3.97;;
12687;SDS011;6408;59.388;17.798;2023-07-31T05:43:46;5.60;;;4.32;;
12687;SDS011;6408;59.388;17.798;2023-07-31T05:46:17;4.50;;;4.10;;
12687;SDS011;6408;59.388;17.798;2023-07-31T05:48:50;4.72;;;4.20;;
12687;SDS011;6408;59.388;17.798;2023-07-31T05:51:31;4.28;;;3.97;;
12687;SDS011;6408;59.388;17.798;2023-07-31T05:54:00;4.88;;;4.00;;
12687;SDS011;6408;59.388;17.798;2023-07-31T05:56:33;6.68;;;4.10;;
12687;SDS011;6408;59.388;17.798;2023-07-31T05:59:18;7.75;;;4.50;;
12687;SDS011;6408;59.388;17.798;2023-07-31T06:08:57;6.15;;;4.05;;
12687;SDS011;6408;59.388;17.798;2023-07-31T06:48:58;3.88;;;2.30;;
12687;SDS011;6408;59.388;17.798;2023-07-31T06:51:33;2.88;;;2.38;;
12687;SDS011;6408;59.388;17.798;2023-07-31T06:54:19;3.42;;;2.42;;
12687;SDS011;6408;59.388;17.798;2023-07-31T07:00:41;3.25;;;2.30;;
12687;SDS011;6408;59.388;17.798;2023-07-31T07:09:25;2.45;;;2.05;;
12687;SDS011;6408;59.388;17.798;2023-07-31T07:11:53;5.43;;;2.75;;
12687;SDS011;6408;59.388;17.798;2023-07-31T07:14:21;3.13;;;2.20;;
12687;SDS011;6408;59.388;17.798;2023-07-31T07:16:59;2.72;;;2.40;;
12687;SDS011;6408;59.388;17.798;2023-07-31T07:19:44;4.57;;;2.13;;
12687;SDS011;6408;59.388;17.798;2023-07-31T07:22:33;3.38;;;2.53;;
12687;SDS011;6408;59.388;17.798;2023-07-31T07:25:04;3.80;;;2.20;;
12687;SDS011;6408;59.388;17.798;2023-07-31T07:27:36;3.55;;;2.40;;
12687;SDS011;6408;59.388;17.798;2023-07-31T07:30:07;3.97;;;2.50;;
12687;SDS011;6408;59.388;17.798;2023-07-31T07:33:00;4.35;;;2.72;;
12687;SDS011;6408;59.388;17.798;2023-07-31T07:35:44;2.65;;;2.00;;
12687;SDS011;6408;59.388;17.798;2023-07-31T07:38:16;5.68;;;2.42;;
12687;SDS011;6408;59.388;17.798;2023-07-31T08:40:54;2.72;;;2.20;;
12687;SDS011;6408;59.388;17.798;2023-07-31T08:43:49;4.10;;;2.50;;
12687;SDS011;6408;59.388;17.798;2023-07-31T09:00:41;3.95;;;2.85;;
12687;SDS011;6408;59.388;17.798;2023-07-31T09:09:51;3.85;;;2.20;;
12687;SDS011;6408;59.388;17.798;2023-07-31T09:12:29;4.82;;;2.13;;
12687;SDS011;6408;59.388;17.798;2023-07-31T09:15:19;5.32;;;2.20;;
12687;SDS011;6408;59.388;17.798;2023-07-31T09:18:09;4.40;;;2.22;;
12687;SDS011;6408;59.388;17.798;2023-07-31T09:20:51;3.47;;;2.33;;
12687;SDS011;6408;59.388;17.798;2023-07-31T09:23:29;4.63;;;1.98;;
12687;SDS011;6408;59.388;17.798;2023-07-31T09:26:29;4.40;;;2.13;;
12687;SDS011;6408;59.388;17.798;2023-07-31T09:29:07;5.95;;;1.98;;
12687;SDS011;6408;59.388;17.798;2023-07-31T09:31:57;5.38;;;2.15;;
12687;SDS011;6408;59.388;17.798;2023-07-31T09:34:31;5.25;;;2.20;;
12687;SDS011;6408;59.388;17.798;2023-07-31T09:37:05;6.80;;;2.45;;
12687;SDS011;6408;59.388;17.798;2023-07-31T09:39:33;3.08;;;1.90;;
12687;SDS011;6408;59.388;17.798;2023-07-31T09:42:15;2.80;;;2.08;;
12687;SDS011;6408;59.388;17.798;2023-07-31T09:45:06;5.50;;;2.50;;
12687;SDS011;6408;59.388;17.798;2023-07-31T09:47:48;2.92;;;2.08;;
12687;SDS011;6408;59.388;17.798;2023-07-31T09:50:22;4.57;;;2.35;;
12687;SDS011;6408;59.388;17.798;2023-07-31T09:52:51;4.95;;;2.20;;
12687;SDS011;6408;59.388;17.798;2023-07-31T09:55:19;4.93;;;2.00;;
12687;SDS011;6408;59.388;17.798;2023-07-31T09:57:48;3.42;;;1.95;;
12687;SDS011;6408;59.388;17.798;2023-07-31T10:00:16;5.13;;;2.25;;
12687;SDS011;6408;59.388;17.798;2023-07-31T10:02:47;4.40;;;2.28;;
12687;SDS011;6408;59.388;17.798;2023-07-31T10:05:14;3.58;;;2.13;;
12687;SDS011;6408;59.388;17.798;2023-07-31T10:07:45;2.85;;;1.90;;
12687;SDS011;6408;59.388;17.798;2023-07-31T10:10:19;5.47;;;2.20;;
12687;SDS011;6408;59.388;17.798;2023-07-31T10:12:48;2.20;;;1.85;;
12687;SDS011;6408;59.388;17.798;2023-07-31T10:15:15;3.47;;;2.10;;
12687;SDS011;6408;59.388;17.798;2023-07-31T10:17:43;4.85;;;2.17;;
12687;SDS011;6408;59.388;17.798;2023-07-31T10:20:12;2.90;;;1.75;;
12687;SDS011;6408;59.388;17.798;2023-07-31T10:22:41;4.75;;;2.03;;
12687;SDS011;6408;59.388;17.798;2023-07-31T10:25:11;3.92;;;1.83;;
12687;SDS011;6408;59.388;17.798;2023-07-31T10:27:39;4.07;;;1.80;;
12687;SDS011;6408;59.388;17.798;2023-07-31T10:30:11;2.22;;;2.00;;
12687;SDS011;6408;59.388;17.798;2023-07-31T10:32:42;3.22;;;1.90;;
12687;SDS011;6408;59.388;17.798;2023-07-31T10:35:10;2.70;;;2.40;;
12687;SDS011;6408;59.388;17.798;2023-07-31T10:37:39;3.45;;;2.30;;
12687;SDS011;6408;59.388;17.798;2023-07-31T10:40:12;3.13;;;2.20;;
12687;SDS011;6408;59.388;17.798;2023-07-31T10:42:45;5.22;;;2.22;;
12687;SDS011;6408;59.388;17.798;2023-07-31T10:45:14;2.72;;;2.13;;
12687;SDS011;6408;59.388;17.798;2023-07-31T10:47:58;2.67;;;2.28;;
12687;SDS011;6408;59.388;17.798;2023-07-31T10:50:26;3.22;;;2.40;;
12687;SDS011;6408;59.388;17.798;2023-07-31T10:52:55;1.95;;;1.77;;
12687;SDS011;6408;59.388;17.798;2023-07-31T10:58:10;2.42;;;2.10;;
12687;SDS011;6408;59.388;17.798;2023-07-31T11:00:39;3.17;;;2.42;;
12687;SDS011;6408;59.388;17.798;2023-07-31T11:03:08;3.97;;;2.50;;
12687;SDS011;6408;59.388;17.798;2023-07-31T11:08:29;4.90;;;2.22;;
12687;SDS011;6408;59.388;17.798;2023-07-31T11:11:08;2.90;;;1.70;;
12687;SDS011;6408;59.388;17.798;2023-07-31T11:13:43;1.63;;;1.45;;
12687;SDS011;6408;59.388;17.798;2023-07-31T11:16:11;2.05;;;1.50;;
12687;SDS011;6408;59.388;17.798;2023-07-31T11:18:42;3.75;;;2.05;;
12687;SDS011;6408;59.388;17.798;2023-07-31T11:21:12;4.30;;;1.60;;
12687;SDS011;6408;59.388;17.798;2023-07-31T11:23:45;3.45;;;1.70;;
12687;SDS011;6408;59.388;17.798;2023-07-31T11:26:15;4.75;;;1.75;;
12687;SDS011;6408;59.388;17.798;2023-07-31T11:28:47;1.98;;;1.50;;
12687;SDS011;6408;59.388;17.798;2023-07-31T11:31:15;3.08;;;1.90;;
12687;SDS011;6408;59.388;17.798;2023-07-31T11:33:45;3.55;;;1.83;;
12687;SDS011;6408;59.388;17.798;2023-07-31T11:36:16;2.72;;;1.40;;
12687;SDS011;6408;59.388;17.798;2023-07-31T11:38:44;2.88;;;1.77;;
12687;SDS011;6408;59.388;17.798;2023-07-31T11:41:15;3.63;;;1.83;;
12687;SDS011;6408;59.388;17.798;2023-07-31T11:43:43;3.53;;;1.85;;
12687;SDS011;6408;59.388;17.798;2023-07-31T11:46:11;5.63;;;2.30;;
12687;SDS011;6408;59.388;17.798;2023-07-31T11:48:41;2.58;;;1.80;;
12687;SDS011;6408;59.388;17.798;2023-07-31T11:51:09;4.07;;;1.90;;
12687;SDS011;6408;59.388;17.798;2023-07-31T11:53:40;3.45;;;1.67;;
12687;SDS011;6408;59.388;17.798;2023-07-31T11:56:10;4.28;;;1.90;;
12687;SDS011;6408;59.388;17.798;2023-07-31T11:58:41;2.13;;;1.80;;
12687;SDS011;6408;59.388;17.798;2023-07-31T12:01:13;2.47;;;1.63;;
12687;SDS011;6408;59.388;17.798;2023-07-31T12:03:42;3.63;;;1.85;;
12687;SDS011;6408;59.388;17.798;2023-07-31T12:06:11;3.28;;;2.00;;
12687;SDS011;6408;59.388;17.798;2023-07-31T12:08:39;1.83;;;1.60;;
12687;SDS011;6408;59.388;17.798;2023-07-31T12:11:07;2.85;;;1.75;;
12687;SDS011;6408;59.388;17.798;2023-07-31T12:13:36;2.13;;;1.70;;
12687;SDS011;6408;59.388;17.798;2023-07-31T12:16:09;3.10;;;1.80;;
12687;SDS011;6408;59.388;17.798;2023-07-31T12:18:37;3.30;;;1.52;;
12687;SDS011;6408;59.388;17.798;2023-07-31T12:21:06;2.38;;;1.52;;
12687;SDS011;6408;59.388;17.798;2023-07-31T12:23:36;2.85;;;1.50;;
12687;SDS011;6408;59.388;17.798;2023-07-31T12:26:05;2.53;;;1.73;;
12687;SDS011;6408;59.388;17.798;2023-07-31T12:28:35;2.60;;;1.70;;
12687;SDS011;6408;59.388;17.798;2023-07-31T12:31:04;3.25;;;1.50;;
12687;SDS011;6408;59.388;17.798;2023-07-31T12:33:41;2.33;;;1.30;;
12687;SDS011;6408;59.388;17.798;2023-07-31T12:36:09;3.95;;;1.80;;
12687;SDS011;6408;59.388;17.798;2023-07-31T12:38:38;2.95;;;1.40;;
12687;SDS011;6408;59.388;17.798;2023-07-31T12:41:05;3.80;;;1.52;;
12687;SDS011;6408;59.388;17.798;2023-07-31T12:43:33;4.15;;;1.52;;
12687;SDS011;6408;59.388;17.798;2023-07-31T12:46:01;2.50;;;1.70;;
12687;SDS011;6408;59.388;17.798;2023-07-31T12:48:28;2.75;;;1.70;;
12687;SDS011;6408;59.388;17.798;2023-07-31T12:50:59;2.70;;;1.77;;
12687;SDS011;6408;59.388;17.798;2023-07-31T12:53:27;4.63;;;2.05;;
12687;SDS011;6408;59.388;17.798;2023-07-31T12:56:03;2.60;;;1.50;;
12687;SDS011;6408;59.388;17.798;2023-07-31T12:58:49;10.77;;;2.40;;
12687;SDS011;6408;59.388;17.798;2023-07-31T13:01:19;7.45;;;2.17;;
12687;SDS011;6408;59.388;17.798;2023-07-31T13:03:47;1.73;;;1.60;;
12687;SDS011;6408;59.388;17.798;2023-07-31T13:06:18;2.67;;;1.55;;
12687;SDS011;6408;59.388;17.798;2023-07-31T13:08:45;2.50;;;1.40;;
12687;SDS011;6408;59.388;17.798;2023-07-31T13:11:12;2.03;;;1.40;;
12687;SDS011;6408;59.388;17.798;2023-07-31T13:13:39;3.33;;;1.25;;
12687;SDS011;6408;59.388;17.798;2023-07-31T13:16:06;1.38;;;1.27;;
12687;SDS011;6408;59.388;17.798;2023-07-31T13:18:33;1.40;;;1.20;;
12687;SDS011;6408;59.388;17.798;2023-07-31T13:21:00;2.00;;;1.05;;
12687;SDS011;6408;59.388;17.798;2023-07-31T13:23:29;1.35;;;0.95;;
12687;SDS011;6408;59.388;17.798;2023-07-31T13:25:58;1.20;;;1.10;;
12687;SDS011;6408;59.388;17.798;2023-07-31T13:28:27;0.85;;;0.85;;
12687;SDS011;6408;59.388;17.798;2023-07-31T13:30:55;1.20;;;1.10;;
12687;SDS011;6408;59.388;17.798;2023-07-31T13:33:22;2.05;;;1.13;;
12687;SDS011;6408;59.388;17.798;2023-07-31T13:35:49;2.15;;;1.35;;
12687;SDS011;6408;59.388;17.798;2023-07-31T13:38:16;2.13;;;1.20;;
12687;SDS011;6408;59.388;17.798;2023-07-31T13:40:44;1.30;;;1.20;;
12687;SDS011;6408;59.388;17.798;2023-07-31T13:43:11;2.75;;;1.40;;
12687;SDS011;6408;59.388;17.798;2023-07-31T13:45:41;1.65;;;1.13;;
12687;SDS011;6408;59.388;17.798;2023-07-31T13:48:08;1.60;;;1.45;;
12687;SDS011;6408;59.388;17.798;2023-07-31T13:50:36;2.17;;;1.40;;
12687;SDS011;6408;59.388;17.798;2023-07-31T13:53:04;1.58;;;1.20;;
12687;SDS011;6408;59.388;17.798;2023-07-31T13:55:31;1.30;;;1.20;;
12687;SDS011;6408;59.388;17.798;2023-07-31T13:58:00;1.25;;;1.10;;
12687;SDS011;6408;59.388;17.798;2023-07-31T14:00:27;2.38;;;1.40;;
12687;SDS011;6408;59.388;17.798;2023-07-31T14:02:55;1.30;;;1.20;;
12687;SDS011;6408;59.388;17.798;2023-07-31T14:05:22;1.30;;;1.20;;
12687;SDS011;6408;59.388;17.798;2023-07-31T14:07:49;2.00;;;1.35;;
12687;SDS011;6408;59.388;17.798;2023-07-31T14:10:16;2.90;;;1.65;;
12687;SDS011;6408;59.388;17.798;2023-07-31T14:12:44;2.58;;;1.52;;
12687;SDS011;6408;59.388;17.798;2023-07-31T14:15:12;2.20;;;1.58;;
12687;SDS011;6408;59.388;17.798;2023-07-31T14:17:39;2.10;;;1.90;;
12687;SDS011;6408;59.388;17.798;2023-07-31T14:20:07;1.85;;;1.20;;
12687;SDS011;6408;59.388;17.798;2023-07-31T14:22:35;2.17;;;1.17;;
12687;SDS011;6408;59.388;17.798;2023-07-31T14:25:03;2.20;;;1.05;;
12687;SDS011;6408;59.388;17.798;2023-07-31T14:27:30;1.60;;;1.17;;
12687;SDS011;6408;59.388;17.798;2023-07-31T14:29:59;3.25;;;1.50;;
12687;SDS011;6408;59.388;17.798;2023-07-31T14:32:28;1.70;;;1.30;;
12687;SDS011;6408;59.388;17.798;2023-07-31T14:34:55;1.73;;;1.30;;
12687;SDS011;6408;59.388;17.798;2023-07-31T14:37:22;1.58;;;1.48;;
12687;SDS011;6408;59.388;17.798;2023-07-31T14:39:52;2.45;;;1.35;;
12687;SDS011;6408;59.388;17.798;2023-07-31T14:42:19;2.13;;;1.20;;
12687;SDS011;6408;59.388;17.798;2023-07-31T14:44:46;1.65;;;1.42;;
12687;SDS011;6408;59.388;17.798;2023-07-31T14:47:13;3.50;;;1.85;;
12687;SDS011;6408;59.388;17.798;2023-07-31T14:49:42;2.95;;;2.03;;
12687;SDS011;6408;59.388;17.798;2023-07-31T14:52:09;2.13;;;1.80;;
12687;SDS011;6408;59.388;17.798;2023-07-31T14:54:36;1.65;;;1.48;;
12687;SDS011;6408;59.388;17.798;2023-07-31T14:57:03;1.95;;;1.70;;
12687;SDS011;6408;59.388;17.798;2023-07-31T14:59:31;5.78;;;1.83;;
12687;SDS011;6408;59.388;17.798;2023-07-31T15:01:58;1.75;;;1.55;;
12687;SDS011;6408;59.388;17.798;2023-07-31T15:04:26;1.90;;;1.50;;
12687;SDS011;6408;59.388;17.798;2023-07-31T15:06:56;2.80;;;1.50;;
12687;SDS011;6408;59.388;17.798;2023-07-31T15:09:23;2.42;;;1.70;;
12687;SDS011;6408;59.388;17.798;2023-07-31T15:11:50;2.65;;;1.58;;
12687;SDS011;6408;59.388;17.798;2023-07-31T15:14:17;1.98;;;1.73;;
12687;SDS011;6408;59.388;17.798;2023-07-31T15:16:45;1.75;;;1.58;;
12687;SDS011;6408;59.388;17.798;2023-07-31T15:19:12;2.65;;;1.50;;
12687;SDS011;6408;59.388;17.798;2023-07-31T15:21:39;1.73;;;1.60;;
12687;SDS011;6408;59.388;17.798;2023-07-31T15:24:07;2.10;;;1.35;;
12687;SDS011;6408;59.388;17.798;2023-07-31T15:26:35;1.50;;;1.40;;
12687;SDS011;6408;59.388;17.798;2023-07-31T15:29:03;1.98;;;1.40;;
12687;SDS011;6408;59.388;17.798;2023-07-31T15:31:33;1.65;;;1.55;;
12687;SDS011;6408;59.388;17.798;2023-07-31T15:34:01;2.20;;;1.95;;
12687;SDS011;6408;59.388;17.798;2023-07-31T15:36:28;2.63;;;1.73;;
12687;SDS011;6408;59.388;17.798;2023-07-31T15:38:55;2.42;;;1.50;;
12687;SDS011;6408;59.388;17.798;2023-07-31T15:41:23;2.45;;;1.70;;
12687;SDS011;6408;59.388;17.798;2023-07-31T15:43:51;3.28;;;1.73;;
12687;SDS011;6408;59.388;17.798;2023-07-31T15:46:18;3.67;;;1.90;;
12687;SDS011;6408;59.388;17.798;2023-07-31T15:48:45;2.00;;;1.60;;
12687;SDS011;6408;59.388;17.798;2023-07-31T15:51:12;2.05;;;1.70;;
12687;SDS011;6408;59.388;17.798;2023-07-31T15:53:40;3.65;;;1.88;;
12687;SDS011;6408;59.388;17.798;2023-07-31T15:56:07;3.70;;;2.00;;
12687;SDS011;6408;59.388;17.798;2023-07-31T15:58:36;2.47;;;1.92;;
12687;SDS011;6408;59.388;17.798;2023-07-31T16:01:03;2.10;;;1.90;;
12687;SDS011;6408;59.388;17.798;2023-07-31T16:03:30;3.92;;;2.20;;
12687;SDS011;6408;59.388;17.798;2023-07-31T16:05:57;3.75;;;2.10;;
12687;SDS011;6408;59.388;17.798;2023-07-31T16:08:24;2.95;;;2.10;;
12687;SDS011;6408;59.388;17.798;2023-07-31T16:10:51;5.75;;;2.53;;
12687;SDS011;6408;59.388;17.798;2023-07-31T16:13:18;4.93;;;2.47;;
12687;SDS011;6408;59.388;17.798;2023-07-31T16:15:46;3.65;;;2.30;;
12687;SDS011;6408;59.388;17.798;2023-07-31T16:18:13;4.22;;;2.58;;
12687;SDS011;6408;59.388;17.798;2023-07-31T16:20:40;4.28;;;2.28;;
12687;SDS011;6408;59.388;17.798;2023-07-31T16:23:08;4.45;;;2.33;;
12687;SDS011;6408;59.388;17.798;2023-07-31T16:25:35;2.30;;;1.90;;
12687;SDS011;6408;59.388;17.798;2023-07-31T16:28:02;4.38;;;2.30;;
12687;SDS011;6408;59.388;17.798;2023-07-31T16:30:29;2.60;;;2.30;;
12687;SDS011;6408;59.388;17.798;2023-07-31T16:32:58;4.50;;;2.30;;
12687;SDS011;6408;59.388;17.798;2023-07-31T16:35:25;2.95;;;2.00;;
12687;SDS011;6408;59.388;17.798;2023-07-31T16:37:52;3.50;;;2.10;;
12687;SDS011;6408;59.388;17.798;2023-07-31T16:40:19;4.10;;;2.35;;
12687;SDS011;6408;59.388;17.798;2023-07-31T16:42:46;5.00;;;2.83;;
12687;SDS011;6408;59.388;17.798;2023-07-31T16:45:13;4.88;;;2.42;;
12687;SDS011;6408;59.388;17.798;2023-07-31T16:47:40;4.18;;;2.33;;
12687;SDS011;6408;59.388;17.798;2023-07-31T16:50:09;3.63;;;2.28;;
12687;SDS011;6408;59.388;17.798;2023-07-31T16:52:36;3.67;;;2.30;;
12687;SDS011;6408;59.388;17.798;2023-07-31T16:55:03;3.22;;;1.88;;
12687;SDS011;6408;59.388;17.798;2023-07-31T16:57:30;3.22;;;2.10;;
12687;SDS011;6408;59.388;17.798;2023-07-31T16:59:58;3.90;;;2.20;;
12687;SDS011;6408;59.388;17.798;2023-07-31T17:02:25;2.88;;;1.98;;
12687;SDS011;6408;59.388;17.798;2023-07-31T17:04:52;3.05;;;2.33;;
12687;SDS011;6408;59.388;17.798;2023-07-31T17:07:21;3.50;;;2.30;;
12687;SDS011;6408;59.388;17.798;2023-07-31T17:09:48;4.63;;;2.20;;
12687;SDS011;6408;59.388;17.798;2023-07-31T17:12:15;3.38;;;2.20;;
12687;SDS011;6408;59.388;17.798;2023-07-31T17:14:42;4.65;;;2.17;;
12687;SDS011;6408;59.388;17.798;2023-07-31T17:17:09;3.33;;;2.15;;
12687;SDS011;6408;59.388;17.798;2023-07-31T17:19:36;4.63;;;2.40;;
12687;SDS011;6408;59.388;17.798;2023-07-31T17:22:03;3.60;;;2.13;;
12687;SDS011;6408;59.388;17.798;2023-07-31T17:24:33;2.55;;;1.80;;
12687;SDS011;6408;59.388;17.798;2023-07-31T17:27:00;3.58;;;1.83;;
12687;SDS011;6408;59.388;17.798;2023-07-31T17:29:27;6.10;;;2.30;;
12687;SDS011;6408;59.388;17.798;2023-07-31T17:31:55;3.17;;;1.90;;
12687;SDS011;6408;59.388;17.798;2023-07-31T17:34:22;3.50;;;1.98;;
12687;SDS011;6408;59.388;17.798;2023-07-31T17:36:49;2.65;;;1.77;;
12687;SDS011;6408;59.388;17.798;2023-07-31T17:39:16;3.72;;;2.38;;
12687;SDS011;6408;59.388;17.798;2023-07-31T17:41:45;2.55;;;2.30;;
12687;SDS011;6408;59.388;17.798;2023-07-31T17:44:13;3.97;;;2.28;;
12687;SDS011;6408;59.388;17.798;2023-07-31T17:46:40;3.63;;;2.25;;
12687;SDS011;6408;59.388;17.798;2023-07-31T17:49:07;2.55;;;2.08;;
12687;SDS011;6408;59.388;17.798;2023-07-31T17:51:35;3.70;;;2.20;;
12687;SDS011;6408;59.388;17.798;2023-07-31T17:54:03;3.25;;;2.28;;
12687;SDS011;6408;59.388;17.798;2023-07-31T17:56:30;4.03;;;2.25;;
12687;SDS011;6408;59.388;17.798;2023-07-31T17:59:03;3.55;;;2.33;;
12687;SDS011;6408;59.388;17.798;2023-07-31T18:01:31;4.45;;;2.42;;
12687;SDS011;6408;59.388;17.798;2023-07-31T18:03:58;2.80;;;1.95;;
12687;SDS011;6408;59.388;17.798;2023-07-31T18:06:25;3.28;;;2.40;;
12687;SDS011;6408;59.388;17.798;2023-07-31T18:08:53;4.95;;;2.40;;
12687;SDS011;6408;59.388;17.798;2023-07-31T18:11:20;6.95;;;2.30;;
12687;SDS011;6408;59.388;17.798;2023-07-31T18:13:51;6.25;;;2.30;;
12687;SDS011;6408;59.388;17.798;2023-07-31T18:16:20;3.47;;;2.30;;
12687;SDS011;6408;59.388;17.798;2023-07-31T18:18:47;2.22;;;2.03;;
12687;SDS011;6408;59.388;17.798;2023-07-31T18:21:19;3.28;;;2.10;;
12687;SDS011;6408;59.388;17.798;2023-07-31T18:23:46;4.70;;;2.20;;
12687;SDS011;6408;59.388;17.798;2023-07-31T18:26:13;3.40;;;2.10;;
12687;SDS011;6408;59.388;17.798;2023-07-31T18:28:40;4.53;;;2.40;;
12687;SDS011;6408;59.388;17.798;2023-07-31T18:31:07;4.28;;;2.28;;
12687;SDS011;6408;59.388;17.798;2023-07-31T18:33:35;4.95;;;2.63;;
12687;SDS011;6408;59.388;17.798;2023-07-31T18:36:03;7.10;;;2.65;;
12687;SDS011;6408;59.388;17.798;2023-07-31T18:38:30;5.30;;;2.20;;
12687;SDS011;6408;59.388;17.798;2023-07-31T18:40:58;2.80;;;2.17;;
12687;SDS011;6408;59.388;17.798;2023-07-31T18:43:25;3.92;;;2.40;;
12687;SDS011;6408;59.388;17.798;2023-07-31T18:45:52;4.68;;;2.50;;
12687;SDS011;6408;59.388;17.798;2023-07-31T18:48:19;5.00;;;2.33;;
12687;SDS011;6408;59.388;17.798;2023-07-31T18:50:47;3.15;;;2.22;;
12687;SDS011;6408;59.388;17.798;2023-07-31T18:53:16;3.28;;;2.20;;
12687;SDS011;6408;59.388;17.798;2023-07-31T18:55:43;3.45;;;2.25;;
12687;SDS011;6408;59.388;17.798;2023-07-31T18:58:10;5.03;;;2.70;;
12687;SDS011;6408;59.388;17.798;2023-07-31T19:00:37;3.80;;;2.65;;
12687;SDS011;6408;59.388;17.798;2023-07-31T19:03:05;3.25;;;2.58;;
12687;SDS011;6408;59.388;17.798;2023-07-31T19:05:32;5.60;;;2.50;;
12687;SDS011;6408;59.388;17.798;2023-07-31T19:08:01;4.80;;;2.80;;
12687;SDS011;6408;59.388;17.798;2023-07-31T19:10:30;3.10;;;2.45;;
12687;SDS011;6408;59.388;17.798;2023-07-31T19:12:57;4.10;;;2.53;;
12687;SDS011;6408;59.388;17.798;2023-07-31T19:15:24;5.47;;;2.70;;
12687;SDS011;6408;59.388;17.798;2023-07-31T19:17:51;4.45;;;2.50;;
12687;SDS011;6408;59.388;17.798;2023-07-31T19:20:19;4.63;;;2.50;;
12687;SDS011;6408;59.388;17.798;2023-07-31T19:22:49;2.88;;;2.63;;
12687;SDS011;6408;59.388;17.798;2023-07-31T19:25:17;5.63;;;2.83;;
12687;SDS011;6408;59.388;17.798;2023-07-31T19:27:44;4.03;;;2.70;;
12687;SDS011;6408;59.388;17.798;2023-07-31T19:30:12;4.57;;;2.60;;
12687;SDS011;6408;59.388;17.798;2023-07-31T19:32:39;5.53;;;3.03;;
12687;SDS011;6408;59.388;17.798;2023-07-31T19:35:07;5.82;;;3.20;;
12687;SDS011;6408;59.388;17.798;2023-07-31T19:37:34;4.40;;;2.53;;
12687;SDS011;6408;59.388;17.798;2023-07-31T19:40:01;7.20;;;2.70;;
12687;SDS011;6408;59.388;17.798;2023-07-31T19:42:31;4.15;;;2.50;;
12687;SDS011;6408;59.388;17.798;2023-07-31T19:45:01;3.28;;;2.65;;
12687;SDS011;6408;59.388;17.798;2023-07-31T19:47:28;5.45;;;2.72;;
12687;SDS011;6408;59.388;17.798;2023-07-31T19:49:55;6.35;;;2.97;;
12687;SDS011;6408;59.388;17.798;2023-07-31T19:52:22;4.95;;;2.80;;
12687;SDS011;6408;59.388;17.798;2023-07-31T19:54:49;4.18;;;2.60;;
12687;SDS011;6408;59.388;17.798;2023-07-31T19:57:16;5.57;;;2.60;;
12687;SDS011;6408;59.388;17.798;2023-07-31T19:59:45;7.45;;;2.80;;
12687;SDS011;6408;59.388;17.798;2023-07-31T20:02:12;7.60;;;2.80;;
12687;SDS011;6408;59.388;17.798;2023-07-31T20:04:39;4.45;;;2.92;;
12687;SDS011;6408;59.388;17.798;2023-07-31T20:07:06;8.13;;;3.10;;
12687;SDS011;6408;59.388;17.798;2023-07-31T20:09:33;4.28;;;2.75;;
12687;SDS011;6408;59.388;17.798;2023-07-31T20:12:00;4.25;;;2.80;;
12687;SDS011;6408;59.388;17.798;2023-07-31T20:14:27;6.88;;;3.25;;
12687;SDS011;6408;59.388;17.798;2023-07-31T20:16:56;6.07;;;2.78;;
12687;SDS011;6408;59.388;17.798;2023-07-31T20:19:24;5.38;;;2.70;;
12687;SDS011;6408;59.388;17.798;2023-07-31T20:21:51;4.55;;;2.75;;
12687;SDS011;6408;59.388;17.798;2023-07-31T20:24:20;6.38;;;2.70;;
12687;SDS011;6408;59.388;17.798;2023-07-31T20:26:47;4.18;;;2.67;;
12687;SDS011;6408;59.388;17.798;2023-07-31T20:29:14;3.70;;;2.28;;
12687;SDS011;6408;59.388;17.798;2023-07-31T20:31:42;5.80;;;2.58;;
12687;SDS011;6408;59.388;17.798;2023-07-31T20:34:11;6.35;;;2.83;;
12687;SDS011;6408;59.388;17.798;2023-07-31T20:36:38;6.38;;;2.63;;
12687;SDS011;6408;59.388;17.798;2023-07-31T20:39:05;6.10;;;2.90;;
12687;SDS011;6408;59.388;17.798;2023-07-31T20:41:33;4.32;;;2.80;;
12687;SDS011;6408;59.388;17.798;2023-07-31T20:44:00;4.50;;;2.55;;
12687;SDS011;6408;59.388;17.798;2023-07-31T20:46:27;3.75;;;2.20;;
12687;SDS011;6408;59.388;17.798;2023-07-31T20:48:54;4.70;;;2.20;;
12687;SDS011;6408;59.388;17.798;2023-07-31T20:51:24;5.38;;;2.10;;
12687;SDS011;6408;59.388;17.798;2023-07-31T20:53:52;3.70;;;2.20;;
12687;SDS011;6408;59.388;17.798;2023-07-31T20:56:19;4.82;;;2.00;;
12687;SDS011;6408;59.388;17.798;2023-07-31T20:58:46;2.72;;;1.75;;
12687;SDS011;6408;59.388;17.798;2023-07-31T21:01:13;2.08;;;1.60;;
12687;SDS011;6408;59.388;17.798;2023-07-31T21:03:40;4.53;;;1.92;;
12687;SDS011;6408;59.388;17.798;2023-07-31T21:06:07;5.63;;;1.77;;
12687;SDS011;6408;59.388;17.798;2023-07-31T21:08:36;3.08;;;1.80;;
12687;SDS011;6408;59.388;17.798;2023-07-31T21:11:05;3.28;;;1.60;;
12687;SDS011;6408;59.388;17.798;2023-07-31T21:13:32;4.22;;;2.00;;
12687;SDS011;6408;59.388;17.798;2023-07-31T21:15:59;2.05;;;1.75;;
12687;SDS011;6408;59.388;17.798;2023-07-31T21:18:26;3.15;;;1.83;;
12687;SDS011;6408;59.388;17.798;2023-07-31T21:20:54;2.47;;;1.50;;
12687;SDS011;6408;59.388;17.798;2023-07-31T21:23:22;3.08;;;1.50;;
12687;SDS011;6408;59.388;17.798;2023-07-31T21:25:51;3.05;;;1.50;;
12687;SDS011;6408;59.388;17.798;2023-07-31T21:28:19;3.50;;;1.58;;
12687;SDS011;6408;59.388;17.798;2023-07-31T21:30:46;2.00;;;1.60;;
12687;SDS011;6408;59.388;17.798;2023-07-31T21:33:13;2.13;;;1.70;;
12687;SDS011;6408;59.388;17.798;2023-07-31T21:35:40;3.20;;;1.80;;
12687;SDS011;6408;59.388;17.798;2023-07-31T21:38:07;2.95;;;1.60;;